sensor_id;sensor_type;location;lat;lon;timestamp;temperature;humidity
18456;DHT22;9357;49.900;8.208;2022-08-01T00:00:37;24.70;99.90
18456;DHT22;9357;49.900;8.208;2022-08-01T00:02:10;24.70;99.90
18456;DHT22;9357;49.900;8.208;2022-08-01T00:03:43;24.60;99.90
18456;DHT22;9357;49.900;8.208;2022-08-01T00:05:16;24.60;99.90
18456;DHT22;9357;49.900;8.208;2022-08-01T00:06:48;24.60;99.90
18456;DHT22;9357;49.900;8.208;2022-08-01T00:08:21;24.60;99.90
18456;DHT22;9357;49.900;8.208;2022-08-01T00:09:53;24.60;99.90
18456;DHT22;9357;49.900;8.208;2022-08-01T00:11:27;24.60;99.90
18456;DHT22;9357;49.900;8.208;2022-08-01T00:13:00;24.50;99.90
18456;DHT22;9357;49.900;8.208;2022-08-01T00:14:32;24.50;99.90
18456;DHT22;9357;49.900;8.208;2022-08-01T00:16:05;24.50;99.90
18456;DHT22;9357;49.900;8.208;2022-08-01T00:17:38;24.40;99.90
18456;DHT22;9357;49.900;8.208;2022-08-01T00:19:11;24.50;99.90
18456;DHT22;9357;49.900;8.208;2022-08-01T00:20:44;24.40;99.90
18456;DHT22;9357;49.900;8.208;2022-08-01T00:22:17;24.40;99.90
18456;DHT22;9357;49.900;8.208;2022-08-01T00:23:49;24.40;99.90
18456;DHT22;9357;49.900;8.208;2022-08-01T00:25:22;24.40;99.90
18456;DHT22;9357;49.900;8.208;2022-08-01T00:27:06;24.40;99.90
18456;DHT22;9357;49.900;8.208;2022-08-01T00:28:39;24.40;99.90
18456;DHT22;9357;49.900;8.208;2022-08-01T00:30:12;24.30;99.90
18456;DHT22;9357;49.900;8.208;2022-08-01T00:31:45;24.30;99.90
18456;DHT22;9357;49.900;8.208;2022-08-01T00:33:18;24.20;99.90
18456;DHT22;9357;49.900;8.208;2022-08-01T00:34:51;24.20;99.90
18456;DHT22;9357;49.900;8.208;2022-08-01T00:36:24;24.20;99.90
18456;DHT22;9357;49.900;8.208;2022-08-01T00:37:57;24.20;99.90
18456;DHT22;9357;49.900;8.208;2022-08-01T00:39:30;24.20;99.90
18456;DHT22;9357;49.900;8.208;2022-08-01T00:41:04;24.20;99.90
18456;DHT22;9357;49.900;8.208;2022-08-01T00:42:38;24.20;99.90
18456;DHT22;9357;49.900;8.208;2022-08-01T00:44:14;24.10;99.90
18456;DHT22;9357;49.900;8.208;2022-08-01T00:45:47;24.10;99.90
18456;DHT22;9357;49.900;8.208;2022-08-01T00:47:19;24.10;99.90
18456;DHT22;9357;49.900;8.208;2022-08-01T00:48:53;24.00;99.90
18456;DHT22;9357;49.900;8.208;2022-08-01T00:50:26;24.10;99.90
18456;DHT22;9357;49.900;8.208;2022-08-01T00:51:59;24.20;99.90
18456;DHT22;9357;49.900;8.208;2022-08-01T00:53:33;24.10;99.90
18456;DHT22;9357;49.900;8.208;2022-08-01T00:55:23;24.20;99.90
18456;DHT22;9357;49.900;8.208;2022-08-01T00:56:56;24.20;99.90
18456;DHT22;9357;49.900;8.208;2022-08-01T00:58:29;24.20;99.90
18456;DHT22;9357;49.900;8.208;2022-08-01T01:00:05;24.10;99.90
18456;DHT22;9357;49.900;8.208;2022-08-01T01:01:38;24.10;99.90
18456;DHT22;9357;49.900;8.208;2022-08-01T01:03:17;24.00;99.90
18456;DHT22;9357;49.900;8.208;2022-08-01T01:04:50;24.00;99.90
18456;DHT22;9357;49.900;8.208;2022-08-01T01:06:27;24.10;99.90
18456;DHT22;9357;49.900;8.208;2022-08-01T01:08:04;24.10;99.90
18456;DHT22;9357;49.900;8.208;2022-08-01T01:09:46;24.10;99.90
18456;DHT22;9357;49.900;8.208;2022-08-01T01:11:28;24.20;99.90
18456;DHT22;9357;49.900;8.208;2022-08-01T01:13:05;24.10;99.90
18456;DHT22;9357;49.900;8.208;2022-08-01T01:14:44;24.10;99.90
18456;DHT22;9357;49.900;8.208;2022-08-01T01:16:19;24.10;99.90
18456;DHT22;9357;49.900;8.208;2022-08-01T01:17:56;24.00;99.90
18456;DHT22;9357;49.900;8.208;2022-08-01T01:19:30;24.00;99.90
18456;DHT22;9357;49.900;8.208;2022-08-01T01:23:10;23.90;99.90
18456;DHT22;9357;49.900;8.208;2022-08-01T01:24:52;23.90;99.90
18456;DHT22;9357;49.900;8.208;2022-08-01T01:26:38;24.00;99.90
18456;DHT22;9357;49.900;8.208;2022-08-01T01:28:17;23.90;99.90
18456;DHT22;9357;49.900;8.208;2022-08-01T01:29:56;23.90;99.90
18456;DHT22;9357;49.900;8.208;2022-08-01T01:31:37;23.90;99.90
18456;DHT22;9357;49.900;8.208;2022-08-01T01:33:13;23.90;99.90
18456;DHT22;9357;49.900;8.208;2022-08-01T01:34:49;24.00;99.90
18456;DHT22;9357;49.900;8.208;2022-08-01T01:36:24;23.90;99.90
18456;DHT22;9357;49.900;8.208;2022-08-01T01:38:04;23.90;99.90
18456;DHT22;9357;49.900;8.208;2022-08-01T01:39:41;23.90;99.90
18456;DHT22;9357;49.900;8.208;2022-08-01T01:41:25;23.80;99.90
18456;DHT22;9357;49.900;8.208;2022-08-01T01:42:59;23.90;99.90
18456;DHT22;9357;49.900;8.208;2022-08-01T01:44:33;23.80;99.90
18456;DHT22;9357;49.900;8.208;2022-08-01T01:46:11;23.80;99.90
18456;DHT22;9357;49.900;8.208;2022-08-01T01:47:45;23.90;99.90
18456;DHT22;9357;49.900;8.208;2022-08-01T01:49:19;23.80;99.90
18456;DHT22;9357;49.900;8.208;2022-08-01T01:50:54;23.80;99.90
18456;DHT22;9357;49.900;8.208;2022-08-01T01:52:28;23.70;99.90
18456;DHT22;9357;49.900;8.208;2022-08-01T01:54:02;23.80;99.90
18456;DHT22;9357;49.900;8.208;2022-08-01T01:55:37;23.70;99.90
18456;DHT22;9357;49.900;8.208;2022-08-01T01:57:21;23.70;99.90
18456;DHT22;9357;49.900;8.208;2022-08-01T01:58:56;23.60;99.90
18456;DHT22;9357;49.900;8.208;2022-08-01T02:00:30;23.60;99.90
18456;DHT22;9357;49.900;8.208;2022-08-01T02:02:05;23.60;99.90
18456;DHT22;9357;49.900;8.208;2022-08-01T02:03:39;23.60;99.90
18456;DHT22;9357;49.900;8.208;2022-08-01T02:05:13;23.60;99.90
18456;DHT22;9357;49.900;8.208;2022-08-01T02:06:47;23.60;99.90
18456;DHT22;9357;49.900;8.208;2022-08-01T02:08:22;23.50;99.90
18456;DHT22;9357;49.900;8.208;2022-08-01T02:09:56;23.60;99.90
18456;DHT22;9357;49.900;8.208;2022-08-01T02:11:30;23.50;99.90
18456;DHT22;9357;49.900;8.208;2022-08-01T02:13:03;23.40;99.90
18456;DHT22;9357;49.900;8.208;2022-08-01T02:14:38;23.30;99.90
18456;DHT22;9357;49.900;8.208;2022-08-01T02:16:12;23.30;99.90
18456;DHT22;9357;49.900;8.208;2022-08-01T02:17:48;23.20;99.90
18456;DHT22;9357;49.900;8.208;2022-08-01T02:19:22;23.10;99.90
18456;DHT22;9357;49.900;8.208;2022-08-01T02:20:55;23.10;99.90
18456;DHT22;9357;49.900;8.208;2022-08-01T02:22:33;23.00;99.90
18456;DHT22;9357;49.900;8.208;2022-08-01T02:24:12;22.90;99.90
18456;DHT22;9357;49.900;8.208;2022-08-01T02:25:47;22.90;99.90
18456;DHT22;9357;49.900;8.208;2022-08-01T02:27:43;22.90;99.90
18456;DHT22;9357;49.900;8.208;2022-08-01T02:29:22;22.80;99.90
18456;DHT22;9357;49.900;8.208;2022-08-01T02:31:00;22.70;99.90
18456;DHT22;9357;49.900;8.208;2022-08-01T02:32:37;22.60;99.90
18456;DHT22;9357;49.900;8.208;2022-08-01T02:34:15;22.60;99.90
18456;DHT22;9357;49.900;8.208;2022-08-01T02:35:52;22.60;99.90
18456;DHT22;9357;49.900;8.208;2022-08-01T02:37:47;22.60;99.90
18456;DHT22;9357;49.900;8.208;2022-08-01T02:39:22;22.60;99.90
18456;DHT22;9357;49.900;8.208;2022-08-01T02:40:58;22.60;99.90
18456;DHT22;9357;49.900;8.208;2022-08-01T02:42:32;22.60;99.90
18456;DHT22;9357;49.900;8.208;2022-08-01T02:44:09;22.60;99.90
18456;DHT22;9357;49.900;8.208;2022-08-01T02:45:45;22.60;99.90
18456;DHT22;9357;49.900;8.208;2022-08-01T02:47:20;22.60;99.90
18456;DHT22;9357;49.900;8.208;2022-08-01T02:48:56;22.60;99.90
18456;DHT22;9357;49.900;8.208;2022-08-01T02:50:34;22.60;99.90
18456;DHT22;9357;49.900;8.208;2022-08-01T02:52:09;22.50;99.90
18456;DHT22;9357;49.900;8.208;2022-08-01T02:53:45;22.50;99.90
18456;DHT22;9357;49.900;8.208;2022-08-01T02:55:19;22.40;99.90
18456;DHT22;9357;49.900;8.208;2022-08-01T02:56:55;22.40;99.90
18456;DHT22;9357;49.900;8.208;2022-08-01T02:58:29;22.30;99.90
18456;DHT22;9357;49.900;8.208;2022-08-01T03:00:03;22.30;99.90
18456;DHT22;9357;49.900;8.208;2022-08-01T03:01:37;22.20;99.90
18456;DHT22;9357;49.900;8.208;2022-08-01T03:03:14;22.20;99.90
18456;DHT22;9357;49.900;8.208;2022-08-01T03:04:48;22.10;99.90
18456;DHT22;9357;49.900;8.208;2022-08-01T03:06:29;22.20;99.90
18456;DHT22;9357;49.900;8.208;2022-08-01T03:08:03;22.00;99.90
18456;DHT22;9357;49.900;8.208;2022-08-01T03:09:46;22.00;99.90
18456;DHT22;9357;49.900;8.208;2022-08-01T03:11:20;22.00;99.90
18456;DHT22;9357;49.900;8.208;2022-08-01T03:12:55;22.00;99.90
18456;DHT22;9357;49.900;8.208;2022-08-01T03:14:31;21.90;99.90
18456;DHT22;9357;49.900;8.208;2022-08-01T03:16:06;21.90;99.90
18456;DHT22;9357;49.900;8.208;2022-08-01T03:17:41;21.90;99.90
18456;DHT22;9357;49.900;8.208;2022-08-01T03:19:15;21.80;99.90
18456;DHT22;9357;49.900;8.208;2022-08-01T03:20:50;21.80;99.90
18456;DHT22;9357;49.900;8.208;2022-08-01T03:22:27;21.70;99.90
18456;DHT22;9357;49.900;8.208;2022-08-01T03:24:04;21.60;99.90
18456;DHT22;9357;49.900;8.208;2022-08-01T03:25:40;21.60;99.90
18456;DHT22;9357;49.900;8.208;2022-08-01T03:27:14;21.60;99.90
18456;DHT22;9357;49.900;8.208;2022-08-01T03:28:48;21.60;99.90
18456;DHT22;9357;49.900;8.208;2022-08-01T03:30:23;21.60;99.90
18456;DHT22;9357;49.900;8.208;2022-08-01T03:31:57;21.60;99.90
18456;DHT22;9357;49.900;8.208;2022-08-01T03:33:31;21.50;99.90
18456;DHT22;9357;49.900;8.208;2022-08-01T03:35:05;21.50;99.90
18456;DHT22;9357;49.900;8.208;2022-08-01T03:36:44;21.50;99.90
18456;DHT22;9357;49.900;8.208;2022-08-01T03:38:23;21.60;99.90
18456;DHT22;9357;49.900;8.208;2022-08-01T03:40:00;21.60;99.90
18456;DHT22;9357;49.900;8.208;2022-08-01T03:41:39;21.60;99.90
18456;DHT22;9357;49.900;8.208;2022-08-01T03:43:17;21.70;99.90
18456;DHT22;9357;49.900;8.208;2022-08-01T03:44:54;21.70;99.90
18456;DHT22;9357;49.900;8.208;2022-08-01T03:46:32;21.80;99.90
18456;DHT22;9357;49.900;8.208;2022-08-01T03:48:10;21.80;99.90
18456;DHT22;9357;49.900;8.208;2022-08-01T03:49:45;21.90;99.90
18456;DHT22;9357;49.900;8.208;2022-08-01T03:51:21;21.90;99.90
18456;DHT22;9357;49.900;8.208;2022-08-01T03:52:57;21.90;99.90
18456;DHT22;9357;49.900;8.208;2022-08-01T03:54:35;21.90;99.90
18456;DHT22;9357;49.900;8.208;2022-08-01T03:56:09;21.90;99.90
18456;DHT22;9357;49.900;8.208;2022-08-01T03:57:42;21.90;99.90
18456;DHT22;9357;49.900;8.208;2022-08-01T03:59:17;21.90;99.90
18456;DHT22;9357;49.900;8.208;2022-08-01T04:00:50;21.90;99.90
18456;DHT22;9357;49.900;8.208;2022-08-01T04:02:24;21.90;99.90
18456;DHT22;9357;49.900;8.208;2022-08-01T04:03:58;21.90;99.90
18456;DHT22;9357;49.900;8.208;2022-08-01T04:05:31;21.90;99.90
18456;DHT22;9357;49.900;8.208;2022-08-01T04:07:04;21.90;99.90
18456;DHT22;9357;49.900;8.208;2022-08-01T04:08:39;21.90;99.90
18456;DHT22;9357;49.900;8.208;2022-08-01T04:10:14;21.90;99.90
18456;DHT22;9357;49.900;8.208;2022-08-01T04:11:46;21.90;99.90
18456;DHT22;9357;49.900;8.208;2022-08-01T04:13:19;21.90;99.90
18456;DHT22;9357;49.900;8.208;2022-08-01T04:14:52;21.90;99.90
18456;DHT22;9357;49.900;8.208;2022-08-01T04:16:25;21.90;99.90
18456;DHT22;9357;49.900;8.208;2022-08-01T04:17:59;21.90;99.90
18456;DHT22;9357;49.900;8.208;2022-08-01T04:19:32;21.90;99.90
18456;DHT22;9357;49.900;8.208;2022-08-01T04:21:05;21.90;99.90
18456;DHT22;9357;49.900;8.208;2022-08-01T04:22:38;21.90;99.90
18456;DHT22;9357;49.900;8.208;2022-08-01T04:24:13;22.00;99.90
18456;DHT22;9357;49.900;8.208;2022-08-01T04:25:52;22.00;99.90
18456;DHT22;9357;49.900;8.208;2022-08-01T04:27:29;22.00;99.90
18456;DHT22;9357;49.900;8.208;2022-08-01T04:29:23;22.00;99.90
18456;DHT22;9357;49.900;8.208;2022-08-01T04:30:57;22.00;99.90
18456;DHT22;9357;49.900;8.208;2022-08-01T04:32:35;22.00;99.90
18456;DHT22;9357;49.900;8.208;2022-08-01T04:34:12;22.00;99.90
18456;DHT22;9357;49.900;8.208;2022-08-01T04:35:47;22.00;99.90
18456;DHT22;9357;49.900;8.208;2022-08-01T04:37:35;22.00;99.90
18456;DHT22;9357;49.900;8.208;2022-08-01T04:39:09;22.00;99.90
18456;DHT22;9357;49.900;8.208;2022-08-01T04:40:44;21.90;99.90
18456;DHT22;9357;49.900;8.208;2022-08-01T04:42:19;21.90;99.90
18456;DHT22;9357;49.900;8.208;2022-08-01T04:44:00;21.90;99.90
18456;DHT22;9357;49.900;8.208;2022-08-01T04:45:35;21.90;99.90
18456;DHT22;9357;49.900;8.208;2022-08-01T04:47:09;21.90;99.90
18456;DHT22;9357;49.900;8.208;2022-08-01T04:48:42;21.90;99.90
18456;DHT22;9357;49.900;8.208;2022-08-01T04:50:16;22.00;99.90
18456;DHT22;9357;49.900;8.208;2022-08-01T04:51:50;22.00;99.90
18456;DHT22;9357;49.900;8.208;2022-08-01T04:53:23;21.90;99.90
18456;DHT22;9357;49.900;8.208;2022-08-01T04:54:57;22.00;99.90
18456;DHT22;9357;49.900;8.208;2022-08-01T04:56:30;22.00;99.90
18456;DHT22;9357;49.900;8.208;2022-08-01T04:58:07;22.00;99.90
18456;DHT22;9357;49.900;8.208;2022-08-01T04:59:44;22.00;99.90
18456;DHT22;9357;49.900;8.208;2022-08-01T05:01:17;22.00;99.90
18456;DHT22;9357;49.900;8.208;2022-08-01T05:02:50;22.00;99.90
18456;DHT22;9357;49.900;8.208;2022-08-01T05:04:25;22.00;99.90
18456;DHT22;9357;49.900;8.208;2022-08-01T05:05:58;22.00;99.90
18456;DHT22;9357;49.900;8.208;2022-08-01T05:07:31;22.00;99.90
18456;DHT22;9357;49.900;8.208;2022-08-01T05:09:16;22.00;99.90
18456;DHT22;9357;49.900;8.208;2022-08-01T05:10:49;22.00;99.90
18456;DHT22;9357;49.900;8.208;2022-08-01T05:12:21;22.00;99.90
18456;DHT22;9357;49.900;8.208;2022-08-01T05:13:56;22.00;99.90
18456;DHT22;9357;49.900;8.208;2022-08-01T05:15:28;22.10;99.90
18456;DHT22;9357;49.900;8.208;2022-08-01T05:17:04;22.00;99.90
18456;DHT22;9357;49.900;8.208;2022-08-01T05:18:37;22.10;99.90
18456;DHT22;9357;49.900;8.208;2022-08-01T05:20:11;22.00;99.90
18456;DHT22;9357;49.900;8.208;2022-08-01T05:21:44;22.10;99.90
18456;DHT22;9357;49.900;8.208;2022-08-01T05:23:17;22.00;99.90
18456;DHT22;9357;49.900;8.208;2022-08-01T05:25:10;22.10;99.90
18456;DHT22;9357;49.900;8.208;2022-08-01T05:26:50;22.10;99.90
18456;DHT22;9357;49.900;8.208;2022-08-01T05:28:23;22.10;99.90
18456;DHT22;9357;49.900;8.208;2022-08-01T05:29:57;22.10;99.90
18456;DHT22;9357;49.900;8.208;2022-08-01T05:31:30;22.10;99.90
18456;DHT22;9357;49.900;8.208;2022-08-01T05:33:05;22.20;99.90
18456;DHT22;9357;49.900;8.208;2022-08-01T05:34:38;22.20;99.90
18456;DHT22;9357;49.900;8.208;2022-08-01T05:36:11;22.30;99.90
18456;DHT22;9357;49.900;8.208;2022-08-01T05:37:43;22.20;99.90
18456;DHT22;9357;49.900;8.208;2022-08-01T05:39:16;22.20;99.90
18456;DHT22;9357;49.900;8.208;2022-08-01T05:40:49;22.20;99.90
18456;DHT22;9357;49.900;8.208;2022-08-01T05:42:22;22.30;99.90
18456;DHT22;9357;49.900;8.208;2022-08-01T05:43:55;22.30;99.90
18456;DHT22;9357;49.900;8.208;2022-08-01T05:45:29;22.40;99.90
18456;DHT22;9357;49.900;8.208;2022-08-01T05:47:02;22.40;99.90
18456;DHT22;9357;49.900;8.208;2022-08-01T05:48:35;22.40;99.90
18456;DHT22;9357;49.900;8.208;2022-08-01T05:50:08;22.50;99.90
18456;DHT22;9357;49.900;8.208;2022-08-01T05:51:41;22.50;99.90
18456;DHT22;9357;49.900;8.208;2022-08-01T05:53:14;22.50;99.90
18456;DHT22;9357;49.900;8.208;2022-08-01T05:54:47;22.60;99.90
18456;DHT22;9357;49.900;8.208;2022-08-01T05:56:20;22.70;99.90
18456;DHT22;9357;49.900;8.208;2022-08-01T05:57:53;22.60;99.90
18456;DHT22;9357;49.900;8.208;2022-08-01T05:59:26;22.70;99.90
18456;DHT22;9357;49.900;8.208;2022-08-01T06:01:00;22.70;99.90
18456;DHT22;9357;49.900;8.208;2022-08-01T06:02:33;22.70;99.90
18456;DHT22;9357;49.900;8.208;2022-08-01T06:04:06;22.70;99.90
18456;DHT22;9357;49.900;8.208;2022-08-01T06:05:39;22.70;99.90
18456;DHT22;9357;49.900;8.208;2022-08-01T06:07:12;22.70;99.90
18456;DHT22;9357;49.900;8.208;2022-08-01T06:08:44;22.80;99.90
18456;DHT22;9357;49.900;8.208;2022-08-01T06:10:17;22.80;99.90
18456;DHT22;9357;49.900;8.208;2022-08-01T06:11:50;22.90;99.90
18456;DHT22;9357;49.900;8.208;2022-08-01T06:13:23;22.80;99.90
18456;DHT22;9357;49.900;8.208;2022-08-01T06:14:57;23.00;99.90
18456;DHT22;9357;49.900;8.208;2022-08-01T06:16:32;23.00;99.90
18456;DHT22;9357;49.900;8.208;2022-08-01T06:18:04;23.10;99.90
18456;DHT22;9357;49.900;8.208;2022-08-01T06:19:37;23.10;99.90
18456;DHT22;9357;49.900;8.208;2022-08-01T06:21:10;23.30;99.90
18456;DHT22;9357;49.900;8.208;2022-08-01T06:22:43;23.20;99.90
18456;DHT22;9357;49.900;8.208;2022-08-01T06:24:23;23.30;99.90
18456;DHT22;9357;49.900;8.208;2022-08-01T06:25:55;23.40;99.90
18456;DHT22;9357;49.900;8.208;2022-08-01T06:27:29;23.50;99.90
18456;DHT22;9357;49.900;8.208;2022-08-01T06:29:02;23.50;99.90
18456;DHT22;9357;49.900;8.208;2022-08-01T06:30:35;23.60;99.90
18456;DHT22;9357;49.900;8.208;2022-08-01T06:32:08;23.50;99.90
18456;DHT22;9357;49.900;8.208;2022-08-01T06:33:56;23.50;99.90
18456;DHT22;9357;49.900;8.208;2022-08-01T06:35:29;23.50;99.90
18456;DHT22;9357;49.900;8.208;2022-08-01T06:37:02;23.70;99.90
18456;DHT22;9357;49.900;8.208;2022-08-01T06:38:37;23.70;99.90
18456;DHT22;9357;49.900;8.208;2022-08-01T06:40:11;23.80;99.90
18456;DHT22;9357;49.900;8.208;2022-08-01T06:41:48;23.90;99.90
18456;DHT22;9357;49.900;8.208;2022-08-01T06:43:21;24.00;99.90
18456;DHT22;9357;49.900;8.208;2022-08-01T06:44:53;24.10;99.90
18456;DHT22;9357;49.900;8.208;2022-08-01T06:46:26;24.20;99.90
18456;DHT22;9357;49.900;8.208;2022-08-01T06:48:04;24.30;99.90
18456;DHT22;9357;49.900;8.208;2022-08-01T06:49:37;24.40;99.90
18456;DHT22;9357;49.900;8.208;2022-08-01T06:51:10;24.60;99.90
18456;DHT22;9357;49.900;8.208;2022-08-01T06:52:46;24.70;99.90
18456;DHT22;9357;49.900;8.208;2022-08-01T06:54:19;24.90;99.90
18456;DHT22;9357;49.900;8.208;2022-08-01T06:55:52;25.20;99.90
18456;DHT22;9357;49.900;8.208;2022-08-01T06:57:25;25.40;99.90
18456;DHT22;9357;49.900;8.208;2022-08-01T06:58:58;25.60;99.90
18456;DHT22;9357;49.900;8.208;2022-08-01T07:00:32;25.90;99.90
18456;DHT22;9357;49.900;8.208;2022-08-01T07:02:05;26.10;99.90
18456;DHT22;9357;49.900;8.208;2022-08-01T07:03:41;26.40;99.90
18456;DHT22;9357;49.900;8.208;2022-08-01T07:05:25;26.70;99.90
18456;DHT22;9357;49.900;8.208;2022-08-01T07:06:58;27.00;99.90
18456;DHT22;9357;49.900;8.208;2022-08-01T07:08:31;27.10;99.90
18456;DHT22;9357;49.900;8.208;2022-08-01T07:10:05;27.30;99.90
18456;DHT22;9357;49.900;8.208;2022-08-01T07:11:39;27.50;99.90
18456;DHT22;9357;49.900;8.208;2022-08-01T07:13:13;27.60;99.90
18456;DHT22;9357;49.900;8.208;2022-08-01T07:14:47;27.60;99.90
18456;DHT22;9357;49.900;8.208;2022-08-01T07:16:20;27.70;99.90
18456;DHT22;9357;49.900;8.208;2022-08-01T07:17:53;27.70;99.90
18456;DHT22;9357;49.900;8.208;2022-08-01T07:19:27;27.70;99.90
18456;DHT22;9357;49.900;8.208;2022-08-01T07:21:00;27.70;99.90
18456;DHT22;9357;49.900;8.208;2022-08-01T07:22:35;27.80;99.90
18456;DHT22;9357;49.900;8.208;2022-08-01T07:24:11;27.80;99.90
18456;DHT22;9357;49.900;8.208;2022-08-01T07:25:46;27.70;99.90
18456;DHT22;9357;49.900;8.208;2022-08-01T07:27:23;27.70;99.90
18456;DHT22;9357;49.900;8.208;2022-08-01T07:28:57;27.60;99.90
18456;DHT22;9357;49.900;8.208;2022-08-01T07:30:30;27.60;99.90
18456;DHT22;9357;49.900;8.208;2022-08-01T07:32:03;27.50;99.90
18456;DHT22;9357;49.900;8.208;2022-08-01T07:33:36;27.40;99.90
18456;DHT22;9357;49.900;8.208;2022-08-01T07:35:21;27.20;99.90
18456;DHT22;9357;49.900;8.208;2022-08-01T07:36:54;27.10;99.90
18456;DHT22;9357;49.900;8.208;2022-08-01T07:38:27;27.00;99.90
18456;DHT22;9357;49.900;8.208;2022-08-01T07:39:59;26.80;99.90
18456;DHT22;9357;49.900;8.208;2022-08-01T07:41:33;26.70;99.90
18456;DHT22;9357;49.900;8.208;2022-08-01T07:43:26;26.60;99.90
18456;DHT22;9357;49.900;8.208;2022-08-01T07:44:58;26.60;99.90
18456;DHT22;9357;49.900;8.208;2022-08-01T07:46:31;26.60;99.90
18456;DHT22;9357;49.900;8.208;2022-08-01T07:48:05;26.60;99.90
18456;DHT22;9357;49.900;8.208;2022-08-01T07:49:39;26.60;99.90
18456;DHT22;9357;49.900;8.208;2022-08-01T07:51:13;26.70;99.90
18456;DHT22;9357;49.900;8.208;2022-08-01T07:52:46;26.80;99.90
18456;DHT22;9357;49.900;8.208;2022-08-01T07:54:19;27.00;99.90
18456;DHT22;9357;49.900;8.208;2022-08-01T07:56:04;27.20;99.90
18456;DHT22;9357;49.900;8.208;2022-08-01T07:57:37;27.60;99.90
18456;DHT22;9357;49.900;8.208;2022-08-01T07:59:10;27.80;99.90
18456;DHT22;9357;49.900;8.208;2022-08-01T08:00:53;28.10;99.90
18456;DHT22;9357;49.900;8.208;2022-08-01T08:02:26;28.40;99.90
18456;DHT22;9357;49.900;8.208;2022-08-01T08:03:59;28.60;99.90
18456;DHT22;9357;49.900;8.208;2022-08-01T08:05:32;28.70;99.90
18456;DHT22;9357;49.900;8.208;2022-08-01T08:07:27;28.90;99.90
18456;DHT22;9357;49.900;8.208;2022-08-01T08:09:01;29.00;99.90
18456;DHT22;9357;49.900;8.208;2022-08-01T08:10:34;29.00;99.90
18456;DHT22;9357;49.900;8.208;2022-08-01T08:12:08;29.00;99.90
18456;DHT22;9357;49.900;8.208;2022-08-01T08:13:41;29.00;99.90
18456;DHT22;9357;49.900;8.208;2022-08-01T08:15:14;29.00;99.90
18456;DHT22;9357;49.900;8.208;2022-08-01T08:16:47;28.90;99.90
18456;DHT22;9357;49.900;8.208;2022-08-01T08:18:20;28.90;99.90
18456;DHT22;9357;49.900;8.208;2022-08-01T08:19:53;28.90;99.90
18456;DHT22;9357;49.900;8.208;2022-08-01T08:21:25;28.80;99.90
18456;DHT22;9357;49.900;8.208;2022-08-01T08:23:00;28.60;99.90
18456;DHT22;9357;49.900;8.208;2022-08-01T08:25:13;28.50;99.90
18456;DHT22;9357;49.900;8.208;2022-08-01T08:26:47;28.20;99.90
18456;DHT22;9357;49.900;8.208;2022-08-01T08:28:23;28.10;99.90
18456;DHT22;9357;49.900;8.208;2022-08-01T08:29:58;28.10;99.90
18456;DHT22;9357;49.900;8.208;2022-08-01T08:31:31;28.00;99.90
18456;DHT22;9357;49.900;8.208;2022-08-01T08:33:23;28.00;99.90
18456;DHT22;9357;49.900;8.208;2022-08-01T08:34:56;27.80;99.90
18456;DHT22;9357;49.900;8.208;2022-08-01T08:36:29;27.70;99.90
18456;DHT22;9357;49.900;8.208;2022-08-01T08:38:03;27.70;99.90
18456;DHT22;9357;49.900;8.208;2022-08-01T08:39:38;27.60;99.90
18456;DHT22;9357;49.900;8.208;2022-08-01T08:41:13;27.60;99.90
18456;DHT22;9357;49.900;8.208;2022-08-01T08:42:52;27.50;99.90
18456;DHT22;9357;49.900;8.208;2022-08-01T08:44:25;27.50;99.90
18456;DHT22;9357;49.900;8.208;2022-08-01T08:45:58;27.50;99.90
18456;DHT22;9357;49.900;8.208;2022-08-01T08:47:32;27.60;99.90
18456;DHT22;9357;49.900;8.208;2022-08-01T08:49:08;27.60;99.90
18456;DHT22;9357;49.900;8.208;2022-08-01T08:50:42;27.60;99.90
18456;DHT22;9357;49.900;8.208;2022-08-01T08:52:17;27.60;99.90
18456;DHT22;9357;49.900;8.208;2022-08-01T08:53:53;27.60;99.90
18456;DHT22;9357;49.900;8.208;2022-08-01T08:55:28;27.60;99.90
18456;DHT22;9357;49.900;8.208;2022-08-01T08:57:01;27.60;99.90
18456;DHT22;9357;49.900;8.208;2022-08-01T08:58:35;27.70;99.90
18456;DHT22;9357;49.900;8.208;2022-08-01T09:00:10;27.70;99.90
18456;DHT22;9357;49.900;8.208;2022-08-01T09:01:43;27.70;99.90
18456;DHT22;9357;49.900;8.208;2022-08-01T09:03:16;27.80;99.90
18456;DHT22;9357;49.900;8.208;2022-08-01T09:04:50;27.70;99.90
18456;DHT22;9357;49.900;8.208;2022-08-01T09:06:23;27.70;99.90
18456;DHT22;9357;49.900;8.208;2022-08-01T09:07:58;27.80;99.90
18456;DHT22;9357;49.900;8.208;2022-08-01T09:09:32;27.80;99.90
18456;DHT22;9357;49.900;8.208;2022-08-01T09:11:11;27.90;99.90
18456;DHT22;9357;49.900;8.208;2022-08-01T09:13:05;28.00;99.90
18456;DHT22;9357;49.900;8.208;2022-08-01T09:14:45;28.00;99.90
18456;DHT22;9357;49.900;8.208;2022-08-01T09:16:18;28.10;99.90
18456;DHT22;9357;49.900;8.208;2022-08-01T09:17:51;28.10;99.90
18456;DHT22;9357;49.900;8.208;2022-08-01T09:19:23;28.20;99.90
18456;DHT22;9357;49.900;8.208;2022-08-01T09:21:15;28.20;99.90
18456;DHT22;9357;49.900;8.208;2022-08-01T09:22:48;28.30;99.90
18456;DHT22;9357;49.900;8.208;2022-08-01T09:24:21;28.30;99.90
18456;DHT22;9357;49.900;8.208;2022-08-01T09:26:02;28.40;99.90
18456;DHT22;9357;49.900;8.208;2022-08-01T09:27:37;28.50;99.90
18456;DHT22;9357;49.900;8.208;2022-08-01T09:29:19;28.60;99.90
18456;DHT22;9357;49.900;8.208;2022-08-01T09:31:10;28.80;99.90
18456;DHT22;9357;49.900;8.208;2022-08-01T09:32:53;29.00;99.90
18456;DHT22;9357;49.900;8.208;2022-08-01T09:34:29;29.30;99.90
18456;DHT22;9357;49.900;8.208;2022-08-01T09:36:02;29.60;99.90
18456;DHT22;9357;49.900;8.208;2022-08-01T09:37:35;29.80;99.90
18456;DHT22;9357;49.900;8.208;2022-08-01T09:39:19;30.00;99.90
18456;DHT22;9357;49.900;8.208;2022-08-01T09:40:53;30.20;99.90
18456;DHT22;9357;49.900;8.208;2022-08-01T09:42:30;30.30;99.90
18456;DHT22;9357;49.900;8.208;2022-08-01T09:44:04;30.40;99.90
18456;DHT22;9357;49.900;8.208;2022-08-01T09:45:39;30.60;99.90
18456;DHT22;9357;49.900;8.208;2022-08-01T09:47:15;30.70;99.90
18456;DHT22;9357;49.900;8.208;2022-08-01T09:48:58;30.70;99.90
18456;DHT22;9357;49.900;8.208;2022-08-01T09:50:39;30.90;99.90
18456;DHT22;9357;49.900;8.208;2022-08-01T09:52:15;31.10;99.90
18456;DHT22;9357;49.900;8.208;2022-08-01T09:53:48;31.10;99.90
18456;DHT22;9357;49.900;8.208;2022-08-01T09:55:25;31.20;99.90
18456;DHT22;9357;49.900;8.208;2022-08-01T09:57:12;31.10;99.90
18456;DHT22;9357;49.900;8.208;2022-08-01T09:58:57;31.00;99.90
18456;DHT22;9357;49.900;8.208;2022-08-01T10:00:34;31.20;99.90
18456;DHT22;9357;49.900;8.208;2022-08-01T10:02:28;31.10;99.90
18456;DHT22;9357;49.900;8.208;2022-08-01T10:04:05;30.90;99.90
18456;DHT22;9357;49.900;8.208;2022-08-01T10:05:41;30.80;99.90
18456;DHT22;9357;49.900;8.208;2022-08-01T10:07:21;30.80;99.90
18456;DHT22;9357;49.900;8.208;2022-08-01T10:09:13;30.80;99.90
18456;DHT22;9357;49.900;8.208;2022-08-01T10:11:05;30.70;99.90
18456;DHT22;9357;49.900;8.208;2022-08-01T10:12:40;30.60;99.90
18456;DHT22;9357;49.900;8.208;2022-08-01T10:14:17;30.60;99.90
18456;DHT22;9357;49.900;8.208;2022-08-01T10:15:52;30.60;99.90